sensor_id;sensor_type;location;lat;lon;timestamp;temperature;humidity
6178;DHT22;3122;48.208;11.174;2023-01-24T00:04:33;0.00;29.50
6178;DHT22;3122;48.208;11.174;2023-01-24T00:09:34;0.00;2.40
6178;DHT22;3122;48.208;11.174;2023-01-24T00:14:34;0.00;1.00
6178;DHT22;3122;48.208;11.174;2023-01-24T00:19:35;-0.10;1.00
6178;DHT22;3122;48.208;11.174;2023-01-24T00:24:35;-0.10;1.00
6178;DHT22;3122;48.208;11.174;2023-01-24T00:29:36;-0.10;1.00
6178;DHT22;3122;48.208;11.174;2023-01-24T00:34:37;0.00;1.00
6178;DHT22;3122;48.208;11.174;2023-01-24T00:39:37;0.00;1.00
6178;DHT22;3122;48.208;11.174;2023-01-24T00:44:38;0.00;1.00
6178;DHT22;3122;48.208;11.174;2023-01-24T00:49:38;0.00;1.00
6178;DHT22;3122;48.208;11.174;2023-01-24T00:54:39;0.00;1.00
6178;DHT22;3122;48.208;11.174;2023-01-24T00:59:39;0.00;1.00
6178;DHT22;3122;48.208;11.174;2023-01-24T01:04:41;0.00;1.00
6178;DHT22;3122;48.208;11.174;2023-01-24T01:09:42;0.00;1.00
6178;DHT22;3122;48.208;11.174;2023-01-24T01:14:43;0.00;1.00
6178;DHT22;3122;48.208;11.174;2023-01-24T01:19:43;0.00;1.00
6178;DHT22;3122;48.208;11.174;2023-01-24T01:24:44;0.10;1.00
6178;DHT22;3122;48.208;11.174;2023-01-24T01:29:44;0.00;1.00
6178;DHT22;3122;48.208;11.174;2023-01-24T01:34:45;0.10;1.20
6178;DHT22;3122;48.208;11.174;2023-01-24T01:39:45;0.10;1.90
6178;DHT22;3122;48.208;11.174;2023-01-24T01:44:47;0.00;1.00
6178;DHT22;3122;48.208;11.174;2023-01-24T01:49:56;0.00;1.50
6178;DHT22;3122;48.208;11.174;2023-01-24T01:55:00;0.00;1.00
6178;DHT22;3122;48.208;11.174;2023-01-24T02:00:09;0.10;1.50
6178;DHT22;3122;48.208;11.174;2023-01-24T02:05:11;0.00;1.50
6178;DHT22;3122;48.208;11.174;2023-01-24T02:10:17;0.10;2.10
6178;DHT22;3122;48.208;11.174;2023-01-24T02:15:20;0.10;2.50
6178;DHT22;3122;48.208;11.174;2023-01-24T02:20:42;0.00;1.40
6178;DHT22;3122;48.208;11.174;2023-01-24T02:26:15;0.00;1.80
6178;DHT22;3122;48.208;11.174;2023-01-24T02:31:16;0.10;1.20
6178;DHT22;3122;48.208;11.174;2023-01-24T02:41:19;0.10;2.60
6178;DHT22;3122;48.208;11.174;2023-01-24T02:46:22;0.10;2.70
6178;DHT22;3122;48.208;11.174;2023-01-24T02:51:23;0.10;9.10
6178;DHT22;3122;48.208;11.174;2023-01-24T02:56:42;0.20;3.80
6178;DHT22;3122;48.208;11.174;2023-01-24T03:02:01;0.10;2.80
6178;DHT22;3122;48.208;11.174;2023-01-24T03:07:02;0.20;3.80
6178;DHT22;3122;48.208;11.174;2023-01-24T03:12:05;0.10;4.90
6178;DHT22;3122;48.208;11.174;2023-01-24T03:17:24;0.10;3.50
6178;DHT22;3122;48.208;11.174;2023-01-24T03:22:43;0.10;3.00
6178;DHT22;3122;48.208;11.174;2023-01-24T03:28:04;0.10;3.10
6178;DHT22;3122;48.208;11.174;2023-01-24T03:33:24;0.00;3.50
6178;DHT22;3122;48.208;11.174;2023-01-24T03:38:43;0.10;2.30
6178;DHT22;3122;48.208;11.174;2023-01-24T03:44:02;0.10;2.30
6178;DHT22;3122;48.208;11.174;2023-01-24T03:49:03;0.10;4.20
6178;DHT22;3122;48.208;11.174;2023-01-24T03:54:03;0.10;4.30
6178;DHT22;3122;48.208;11.174;2023-01-24T03:59:04;0.10;5.80
6178;DHT22;3122;48.208;11.174;2023-01-24T04:04:05;0.10;5.50
6178;DHT22;3122;48.208;11.174;2023-01-24T04:09:06;0.10;5.30
6178;DHT22;3122;48.208;11.174;2023-01-24T04:14:06;0.10;5.90
6178;DHT22;3122;48.208;11.174;2023-01-24T04:19:07;0.10;4.00
6178;DHT22;3122;48.208;11.174;2023-01-24T04:24:07;0.20;6.20
6178;DHT22;3122;48.208;11.174;2023-01-24T04:29:08;0.20;6.50
6178;DHT22;3122;48.208;11.174;2023-01-24T04:34:09;0.10;7.10
6178;DHT22;3122;48.208;11.174;2023-01-24T04:39:09;0.20;7.30
6178;DHT22;3122;48.208;11.174;2023-01-24T04:44:10;0.20;7.20
6178;DHT22;3122;48.208;11.174;2023-01-24T04:49:10;0.10;5.90
6178;DHT22;3122;48.208;11.174;2023-01-24T04:54:11;0.20;7.80
6178;DHT22;3122;48.208;11.174;2023-01-24T04:59:12;0.20;8.40
6178;DHT22;3122;48.208;11.174;2023-01-24T05:04:13;0.20;7.80
6178;DHT22;3122;48.208;11.174;2023-01-24T05:09:15;0.20;9.00
6178;DHT22;3122;48.208;11.174;2023-01-24T05:14:15;0.20;8.90
6178;DHT22;3122;48.208;11.174;2023-01-24T05:19:16;0.20;8.90
6178;DHT22;3122;48.208;11.174;2023-01-24T05:24:16;0.10;10.10
6178;DHT22;3122;48.208;11.174;2023-01-24T05:29:18;0.20;9.50
6178;DHT22;3122;48.208;11.174;2023-01-24T05:34:19;0.20;10.70
6178;DHT22;3122;48.208;11.174;2023-01-24T05:39:19;0.20;10.80
6178;DHT22;3122;48.208;11.174;2023-01-24T05:44:20;0.20;11.30
6178;DHT22;3122;48.208;11.174;2023-01-24T05:49:20;0.20;11.10
6178;DHT22;3122;48.208;11.174;2023-01-24T05:54:21;0.20;11.90
6178;DHT22;3122;48.208;11.174;2023-01-24T05:59:21;0.20;11.90
6178;DHT22;3122;48.208;11.174;2023-01-24T06:04:22;0.20;13.60
6178;DHT22;3122;48.208;11.174;2023-01-24T06:09:23;0.20;40.00
6178;DHT22;3122;48.208;11.174;2023-01-24T06:14:24;0.20;22.70
6178;DHT22;3122;48.208;11.174;2023-01-24T06:19:24;0.20;19.40
6178;DHT22;3122;48.208;11.174;2023-01-24T06:24:26;0.20;17.20
6178;DHT22;3122;48.208;11.174;2023-01-24T06:29:27;0.20;16.30
6178;DHT22;3122;48.208;11.174;2023-01-24T06:39:51;0.20;15.40
6178;DHT22;3122;48.208;11.174;2023-01-24T06:44:52;0.20;16.30
6178;DHT22;3122;48.208;11.174;2023-01-24T06:49:53;0.20;16.80
6178;DHT22;3122;48.208;11.174;2023-01-24T06:54:54;0.20;18.00
6178;DHT22;3122;48.208;11.174;2023-01-24T06:59:54;0.20;17.70
6178;DHT22;3122;48.208;11.174;2023-01-24T07:04:55;0.20;16.60
6178;DHT22;3122;48.208;11.174;2023-01-24T07:09:55;0.20;16.50
6178;DHT22;3122;48.208;11.174;2023-01-24T07:14:56;0.20;16.40
6178;DHT22;3122;48.208;11.174;2023-01-24T07:19:57;0.30;16.20
6178;DHT22;3122;48.208;11.174;2023-01-24T07:24:57;0.20;16.90
6178;DHT22;3122;48.208;11.174;2023-01-24T07:29:58;0.30;16.60
6178;DHT22;3122;48.208;11.174;2023-01-24T07:34:59;0.30;16.20
6178;DHT22;3122;48.208;11.174;2023-01-24T07:39:59;0.20;17.30
6178;DHT22;3122;48.208;11.174;2023-01-24T07:45:00;0.20;16.80
6178;DHT22;3122;48.208;11.174;2023-01-24T07:50:01;0.20;17.50
6178;DHT22;3122;48.208;11.174;2023-01-24T07:55:01;0.30;17.90
6178;DHT22;3122;48.208;11.174;2023-01-24T08:00:03;0.30;17.60
6178;DHT22;3122;48.208;11.174;2023-01-24T08:05:04;0.30;17.30
6178;DHT22;3122;48.208;11.174;2023-01-24T08:10:05;0.30;17.30
6178;DHT22;3122;48.208;11.174;2023-01-24T08:15:06;0.30;17.60
6178;DHT22;3122;48.208;11.174;2023-01-24T08:20:08;0.30;18.30
6178;DHT22;3122;48.208;11.174;2023-01-24T08:25:09;0.30;17.80
6178;DHT22;3122;48.208;11.174;2023-01-24T08:30:10;0.30;18.30
6178;DHT22;3122;48.208;11.174;2023-01-24T08:35:11;0.40;18.90
6178;DHT22;3122;48.208;11.174;2023-01-24T08:40:12;0.30;19.00
6178;DHT22;3122;48.208;11.174;2023-01-24T08:45:12;0.40;19.10
6178;DHT22;3122;48.208;11.174;2023-01-24T08:50:13;0.40;19.00
6178;DHT22;3122;48.208;11.174;2023-01-24T08:55:16;0.40;18.90
6178;DHT22;3122;48.208;11.174;2023-01-24T09:00:17;0.40;18.70
6178;DHT22;3122;48.208;11.174;2023-01-24T09:05:17;0.40;18.30
6178;DHT22;3122;48.208;11.174;2023-01-24T09:10:18;0.40;18.30
6178;DHT22;3122;48.208;11.174;2023-01-24T09:15:19;0.50;18.60
6178;DHT22;3122;48.208;11.174;2023-01-24T09:20:20;0.40;17.80
6178;DHT22;3122;48.208;11.174;2023-01-24T09:25:21;0.50;18.50
6178;DHT22;3122;48.208;11.174;2023-01-24T09:30:22;0.50;17.70
6178;DHT22;3122;48.208;11.174;2023-01-24T09:35:23;0.50;18.90
6178;DHT22;3122;48.208;11.174;2023-01-24T09:40:26;0.50;19.20
6178;DHT22;3122;48.208;11.174;2023-01-24T09:45:43;0.50;19.20
6178;DHT22;3122;48.208;11.174;2023-01-24T09:50:51;0.50;18.80
6178;DHT22;3122;48.208;11.174;2023-01-24T09:55:53;0.50;19.30
6178;DHT22;3122;48.208;11.174;2023-01-24T10:00:54;0.60;18.90
6178;DHT22;3122;48.208;11.174;2023-01-24T10:05:59;0.50;19.00
6178;DHT22;3122;48.208;11.174;2023-01-24T10:16:39;0.60;18.80
6178;DHT22;3122;48.208;11.174;2023-01-24T10:22:19;0.60;19.70
6178;DHT22;3122;48.208;11.174;2023-01-24T10:27:31;0.60;19.50
6178;DHT22;3122;48.208;11.174;2023-01-24T10:32:33;0.60;19.70
6178;DHT22;3122;48.208;11.174;2023-01-24T10:37:38;0.60;19.20
6178;DHT22;3122;48.208;11.174;2023-01-24T10:42:39;0.70;19.60
6178;DHT22;3122;48.208;11.174;2023-01-24T10:52:48;0.70;19.60
6178;DHT22;3122;48.208;11.174;2023-01-24T10:57:52;0.70;19.50
6178;DHT22;3122;48.208;11.174;2023-01-24T11:02:55;0.70;19.40
6178;DHT22;3122;48.208;11.174;2023-01-24T11:08:00;0.70;19.50
6178;DHT22;3122;48.208;11.174;2023-01-24T11:13:03;0.70;19.50
6178;DHT22;3122;48.208;11.174;2023-01-24T11:18:24;0.70;19.40
6178;DHT22;3122;48.208;11.174;2023-01-24T11:23:27;0.70;19.80
6178;DHT22;3122;48.208;11.174;2023-01-24T11:28:29;0.80;19.50
6178;DHT22;3122;48.208;11.174;2023-01-24T11:38:45;0.80;18.90
6178;DHT22;3122;48.208;11.174;2023-01-24T11:55:38;0.90;17.30
6178;DHT22;3122;48.208;11.174;2023-01-24T12:11:34;1.00;17.00
6178;DHT22;3122;48.208;11.174;2023-01-24T12:22:16;1.00;14.80
6178;DHT22;3122;48.208;11.174;2023-01-24T12:27:21;1.00;14.20
6178;DHT22;3122;48.208;11.174;2023-01-24T12:32:30;0.90;14.00
6178;DHT22;3122;48.208;11.174;2023-01-24T12:43:21;0.90;13.70
6178;DHT22;3122;48.208;11.174;2023-01-24T12:58:55;1.10;13.60
6178;DHT22;3122;48.208;11.174;2023-01-24T13:09:30;1.10;12.90
6178;DHT22;3122;48.208;11.174;2023-01-24T13:14:41;1.20;12.50
6178;DHT22;3122;48.208;11.174;2023-01-24T13:35:55;1.20;11.10
6178;DHT22;3122;48.208;11.174;2023-01-24T13:41:01;1.10;11.30
6178;DHT22;3122;48.208;11.174;2023-01-24T13:46:02;1.10;10.70
6178;DHT22;3122;48.208;11.174;2023-01-24T13:51:33;1.10;10.80
6178;DHT22;3122;48.208;11.174;2023-01-24T14:02:21;1.10;11.10
6178;DHT22;3122;48.208;11.174;2023-01-24T14:07:35;1.10;10.30
6178;DHT22;3122;48.208;11.174;2023-01-24T14:12:39;1.10;11.00
6178;DHT22;3122;48.208;11.174;2023-01-24T14:22:44;1.10;10.50
6178;DHT22;3122;48.208;11.174;2023-01-24T14:27:53;1.10;9.90
6178;DHT22;3122;48.208;11.174;2023-01-24T14:33:23;1.10;10.30
6178;DHT22;3122;48.208;11.174;2023-01-24T14:38:26;1.10;10.20
6178;DHT22;3122;48.208;11.174;2023-01-24T14:43:34;1.10;9.80
6178;DHT22;3122;48.208;11.174;2023-01-24T14:48:36;1.10;10.20
6178;DHT22;3122;48.208;11.174;2023-01-24T14:53:37;1.10;11.00
6178;DHT22;3122;48.208;11.174;2023-01-24T14:58:37;1.00;10.80
6178;DHT22;3122;48.208;11.174;2023-01-24T15:03:38;1.00;11.20
6178;DHT22;3122;48.208;11.174;2023-01-24T15:08:38;1.10;11.20
6178;DHT22;3122;48.208;11.174;2023-01-24T15:13:45;1.10;11.40
6178;DHT22;3122;48.208;11.174;2023-01-24T15:18:51;1.00;10.50
6178;DHT22;3122;48.208;11.174;2023-01-24T15:23:54;1.00;11.30
6178;DHT22;3122;48.208;11.174;2023-01-24T15:28:56;1.00;11.70
6178;DHT22;3122;48.208;11.174;2023-01-24T15:33:58;1.00;12.10
6178;DHT22;3122;48.208;11.174;2023-01-24T15:39:00;1.00;12.20
6178;DHT22;3122;48.208;11.174;2023-01-24T15:44:03;1.00;11.50
6178;DHT22;3122;48.208;11.174;2023-01-24T15:49:17;0.90;13.60
6178;DHT22;3122;48.208;11.174;2023-01-24T15:54:17;0.90;14.10
6178;DHT22;3122;48.208;11.174;2023-01-24T15:59:18;1.00;14.70
6178;DHT22;3122;48.208;11.174;2023-01-24T16:04:21;1.00;15.30
6178;DHT22;3122;48.208;11.174;2023-01-24T16:09:22;1.00;15.20
6178;DHT22;3122;48.208;11.174;2023-01-24T16:14:25;0.90;16.10
6178;DHT22;3122;48.208;11.174;2023-01-24T16:19:26;1.00;16.60
6178;DHT22;3122;48.208;11.174;2023-01-24T16:24:26;0.90;16.20
6178;DHT22;3122;48.208;11.174;2023-01-24T16:29:29;0.90;16.40
6178;DHT22;3122;48.208;11.174;2023-01-24T16:34:30;0.80;15.90
6178;DHT22;3122;48.208;11.174;2023-01-24T16:39:31;0.90;16.30
6178;DHT22;3122;48.208;11.174;2023-01-24T16:44:33;0.90;16.60
6178;DHT22;3122;48.208;11.174;2023-01-24T16:49:34;0.90;16.10
6178;DHT22;3122;48.208;11.174;2023-01-24T16:54:35;0.90;16.70
6178;DHT22;3122;48.208;11.174;2023-01-24T16:59:35;0.90;16.80
6178;DHT22;3122;48.208;11.174;2023-01-24T17:04:36;0.90;15.70
6178;DHT22;3122;48.208;11.174;2023-01-24T17:09:37;0.90;16.30
6178;DHT22;3122;48.208;11.174;2023-01-24T17:14:37;0.90;16.00
6178;DHT22;3122;48.208;11.174;2023-01-24T17:19:38;0.90;15.90
6178;DHT22;3122;48.208;11.174;2023-01-24T17:24:38;0.90;15.70
6178;DHT22;3122;48.208;11.174;2023-01-24T17:29:39;0.90;16.10
6178;DHT22;3122;48.208;11.174;2023-01-24T17:34:39;0.90;15.00
6178;DHT22;3122;48.208;11.174;2023-01-24T17:39:40;0.90;14.90
6178;DHT22;3122;48.208;11.174;2023-01-24T17:44:40;0.90;15.20
6178;DHT22;3122;48.208;11.174;2023-01-24T17:49:41;0.90;15.80
6178;DHT22;3122;48.208;11.174;2023-01-24T17:54:41;0.90;16.10
6178;DHT22;3122;48.208;11.174;2023-01-24T17:59:42;0.90;15.60
6178;DHT22;3122;48.208;11.174;2023-01-24T18:04:43;0.90;15.80
6178;DHT22;3122;48.208;11.174;2023-01-24T18:09:43;0.90;16.50
6178;DHT22;3122;48.208;11.174;2023-01-24T18:14:44;0.90;16.30
6178;DHT22;3122;48.208;11.174;2023-01-24T18:19:44;0.90;16.00
6178;DHT22;3122;48.208;11.174;2023-01-24T18:24:45;0.90;15.90
6178;DHT22;3122;48.208;11.174;2023-01-24T18:29:47;0.80;16.10
6178;DHT22;3122;48.208;11.174;2023-01-24T18:34:47;0.90;16.00
6178;DHT22;3122;48.208;11.174;2023-01-24T18:39:50;0.80;15.90
6178;DHT22;3122;48.208;11.174;2023-01-24T18:44:50;0.80;16.80
6178;DHT22;3122;48.208;11.174;2023-01-24T18:49:51;0.80;15.80
6178;DHT22;3122;48.208;11.174;2023-01-24T18:54:52;0.80;16.60
6178;DHT22;3122;48.208;11.174;2023-01-24T18:59:52;0.80;17.10
6178;DHT22;3122;48.208;11.174;2023-01-24T19:04:53;0.80;17.20
6178;DHT22;3122;48.208;11.174;2023-01-24T19:09:53;0.80;18.10
6178;DHT22;3122;48.208;11.174;2023-01-24T19:14:54;0.80;17.30
6178;DHT22;3122;48.208;11.174;2023-01-24T19:19:54;0.90;18.10
6178;DHT22;3122;48.208;11.174;2023-01-24T19:24:55;0.80;17.50
6178;DHT22;3122;48.208;11.174;2023-01-24T19:29:55;0.80;18.20
6178;DHT22;3122;48.208;11.174;2023-01-24T19:34:57;0.80;19.40
6178;DHT22;3122;48.208;11.174;2023-01-24T19:39:57;0.80;18.00
6178;DHT22;3122;48.208;11.174;2023-01-24T19:44:58;0.80;18.50
6178;DHT22;3122;48.208;11.174;2023-01-24T19:49:59;0.80;19.00
6178;DHT22;3122;48.208;11.174;2023-01-24T19:54:59;0.80;19.80
6178;DHT22;3122;48.208;11.174;2023-01-24T20:00:00;0.70;18.90
6178;DHT22;3122;48.208;11.174;2023-01-24T20:05:00;0.70;20.10
6178;DHT22;3122;48.208;11.174;2023-01-24T20:10:01;0.70;20.60
6178;DHT22;3122;48.208;11.174;2023-01-24T20:15:01;0.80;20.90
6178;DHT22;3122;48.208;11.174;2023-01-24T20:20:02;0.70;20.90
6178;DHT22;3122;48.208;11.174;2023-01-24T20:25:04;0.70;20.50
6178;DHT22;3122;48.208;11.174;2023-01-24T20:30:05;0.70;21.30
6178;DHT22;3122;48.208;11.174;2023-01-24T20:35:06;0.70;22.00
6178;DHT22;3122;48.208;11.174;2023-01-24T20:40:07;0.70;21.80
6178;DHT22;3122;48.208;11.174;2023-01-24T20:45:09;0.70;22.10
6178;DHT22;3122;48.208;11.174;2023-01-24T20:50:10;0.70;22.60
6178;DHT22;3122;48.208;11.174;2023-01-24T20:55:11;0.70;21.70
6178;DHT22;3122;48.208;11.174;2023-01-24T21:00:12;0.70;23.30
6178;DHT22;3122;48.208;11.174;2023-01-24T21:05:13;0.70;23.80
6178;DHT22;3122;48.208;11.174;2023-01-24T21:10:14;0.70;24.10
6178;DHT22;3122;48.208;11.174;2023-01-24T21:15:14;0.70;23.80
6178;DHT22;3122;48.208;11.174;2023-01-24T21:20:15;0.70;24.90
6178;DHT22;3122;48.208;11.174;2023-01-24T21:25:16;0.70;24.10
6178;DHT22;3122;48.208;11.174;2023-01-24T21:30:16;0.70;25.10
6178;DHT22;3122;48.208;11.174;2023-01-24T21:35:17;0.70;25.20
6178;DHT22;3122;48.208;11.174;2023-01-24T21:40:18;0.70;24.90
6178;DHT22;3122;48.208;11.174;2023-01-24T21:45:19;0.60;25.60
6178;DHT22;3122;48.208;11.174;2023-01-24T21:50:19;0.60;25.30
6178;DHT22;3122;48.208;11.174;2023-01-24T21:55:20;0.60;27.20
6178;DHT22;3122;48.208;11.174;2023-01-24T22:00:20;0.70;26.60
6178;DHT22;3122;48.208;11.174;2023-01-24T22:05:21;0.60;26.80
6178;DHT22;3122;48.208;11.174;2023-01-24T22:10:22;0.60;26.20
6178;DHT22;3122;48.208;11.174;2023-01-24T22:15:23;0.70;26.20
6178;DHT22;3122;48.208;11.174;2023-01-24T22:20:23;0.60;26.10
6178;DHT22;3122;48.208;11.174;2023-01-24T22:30:45;0.60;26.20
6178;DHT22;3122;48.208;11.174;2023-01-24T22:35:49;0.60;26.00
6178;DHT22;3122;48.208;11.174;2023-01-24T22:40:53;0.60;26.00
6178;DHT22;3122;48.208;11.174;2023-01-24T22:45:53;0.60;25.60
6178;DHT22;3122;48.208;11.174;2023-01-24T22:50:54;0.60;24.80
6178;DHT22;3122;48.208;11.174;2023-01-24T22:55:55;0.60;24.40
6178;DHT22;3122;48.208;11.174;2023-01-24T23:01:02;0.60;23.80
6178;DHT22;3122;48.208;11.174;2023-01-24T23:06:05;0.60;23.90
6178;DHT22;3122;48.208;11.174;2023-01-24T23:11:11;0.60;23.40
6178;DHT22;3122;48.208;11.174;2023-01-24T23:16:14;0.60;23.10
6178;DHT22;3122;48.208;11.174;2023-01-24T23:21:15;0.60;23.10
6178;DHT22;3122;48.208;11.174;2023-01-24T23:26:30;0.50;21.30
6178;DHT22;3122;48.208;11.174;2023-01-24T23:31:30;0.50;20.70
6178;DHT22;3122;48.208;11.174;2023-01-24T23:36:31;0.50;21.50
6178;DHT22;3122;48.208;11.174;2023-01-24T23:41:33;0.50;20.80
6178;DHT22;3122;48.208;11.174;2023-01-24T23:46:33;0.50;20.90
6178;DHT22;3122;48.208;11.174;2023-01-24T23:51:34;0.50;21.00
6178;DHT22;3122;48.208;11.174;2023-01-24T23:56:34;0.50;21.00
